createdAt,value
2022-10-12T00:00:25.903Z,5.40
2022-10-12T00:02:52.636Z,6.33
2022-10-12T00:05:19.305Z,5.80
2022-10-12T00:07:45.920Z,5.20
2022-10-12T00:10:14.114Z,5.90
2022-10-12T00:12:40.831Z,5.67
2022-10-12T00:15:07.844Z,6.30
2022-10-12T00:17:34.511Z,5.93
2022-10-12T00:20:01.160Z,5.83
2022-10-12T00:22:27.818Z,6.33
2022-10-12T00:24:54.465Z,6.37
2022-10-12T00:27:21.191Z,6.03
2022-10-12T00:29:48.089Z,5.83
2022-10-12T00:32:15.433Z,6.60
2022-10-12T00:34:42.044Z,5.63
2022-10-12T00:37:08.668Z,6.37
2022-10-12T00:39:35.337Z,6.00
2022-10-12T00:42:02.276Z,5.77
2022-10-12T00:44:36.753Z,6.23
2022-10-12T00:47:08.073Z,6.03
2022-10-12T00:49:35.184Z,6.17
2022-10-12T00:52:08.773Z,6.80
2022-10-12T00:54:42.656Z,6.70
2022-10-12T00:57:11.145Z,6.10
2022-10-12T00:59:48.667Z,5.77
2022-10-12T01:02:15.649Z,6.07
2022-10-12T01:04:43.056Z,6.43
2022-10-12T01:07:09.726Z,5.67
2022-10-12T01:09:36.819Z,6.70
2022-10-12T01:12:05.440Z,6.53
2022-10-12T01:14:32.351Z,6.33
2022-10-12T01:17:09.433Z,6.53
2022-10-12T01:20:02.939Z,6.20
2022-10-12T01:22:33.910Z,6.70
2022-10-12T01:25:22.413Z,5.07
2022-10-12T01:27:52.904Z,5.60
2022-10-12T01:30:22.378Z,5.50
2022-10-12T01:33:06.206Z,6.00
2022-10-12T01:35:51.705Z,6.00
2022-10-12T01:38:27.455Z,5.20
2022-10-12T01:41:12.922Z,5.60
2022-10-12T01:43:41.626Z,5.20
2022-10-12T01:46:20.204Z,5.63
2022-10-12T01:48:50.126Z,5.10
2022-10-12T01:51:24.556Z,5.50
2022-10-12T01:54:13.784Z,5.33
2022-10-12T01:56:48.072Z,6.00
2022-10-12T01:59:25.895Z,4.77
2022-10-12T02:02:06.058Z,5.63
2022-10-12T02:04:46.460Z,5.17
2022-10-12T02:07:27.664Z,4.83
2022-10-12T02:09:58.561Z,5.07
2022-10-12T02:12:29.095Z,4.87
2022-10-12T02:15:00.304Z,5.17
2022-10-12T02:17:27.066Z,5.10
2022-10-12T02:19:59.829Z,5.30
2022-10-12T02:22:34.177Z,4.60
2022-10-12T02:25:04.069Z,4.67
2022-10-12T02:27:34.955Z,5.20
2022-10-12T02:30:02.665Z,4.23
2022-10-12T02:32:40.765Z,4.63
2022-10-12T02:35:20.824Z,5.07
2022-10-12T02:37:56.458Z,4.30
2022-10-12T02:40:44.780Z,4.87
2022-10-12T02:43:16.924Z,4.60
2022-10-12T02:45:46.384Z,4.57
2022-10-12T02:48:18.555Z,5.30
2022-10-12T02:50:46.475Z,4.87
2022-10-12T02:53:13.528Z,5.07
2022-10-12T02:55:51.418Z,4.70
2022-10-12T02:58:18.371Z,4.90
2022-10-12T03:00:45.090Z,4.50
2022-10-12T03:03:11.731Z,4.00
2022-10-12T03:05:38.444Z,4.80
2022-10-12T03:08:05.146Z,5.27
2022-10-12T03:10:31.817Z,4.70
2022-10-12T03:12:58.396Z,4.80
2022-10-12T03:15:25.099Z,5.43
2022-10-12T03:17:51.739Z,4.47
2022-10-12T03:20:18.339Z,4.87
2022-10-12T03:22:45.071Z,4.13
2022-10-12T03:25:11.768Z,4.30
2022-10-12T03:27:38.663Z,4.90
2022-10-12T03:30:05.944Z,4.17
2022-10-12T03:32:32.527Z,4.43
2022-10-12T03:34:59.141Z,4.53
2022-10-12T03:37:25.721Z,5.33
2022-10-12T03:39:52.340Z,4.20
2022-10-12T03:42:18.951Z,4.73
2022-10-12T03:44:45.563Z,4.57
2022-10-12T03:47:12.266Z,4.87
2022-10-12T03:49:38.947Z,5.00
2022-10-12T03:52:05.620Z,6.37
2022-10-12T03:54:32.256Z,5.17
2022-10-12T03:56:58.888Z,4.77
2022-10-12T03:59:25.549Z,5.17
2022-10-12T04:01:52.330Z,4.93
2022-10-12T04:04:19.145Z,5.13
2022-10-12T04:06:45.776Z,5.03
2022-10-12T04:09:12.458Z,4.90
2022-10-12T04:11:39.093Z,4.70
2022-10-12T04:14:05.723Z,5.50
2022-10-12T04:16:32.619Z,4.87
2022-10-12T04:18:59.388Z,4.97
2022-10-12T04:21:26.078Z,4.73
2022-10-12T04:23:52.796Z,5.00
2022-10-12T04:26:19.399Z,4.87
2022-10-12T04:28:46.088Z,5.60
2022-10-12T04:31:12.757Z,4.97
2022-10-12T04:33:39.400Z,4.70
2022-10-12T04:36:06.365Z,6.40
2022-10-12T04:38:33.031Z,5.17
2022-10-12T04:40:59.644Z,5.70
2022-10-12T04:43:26.333Z,6.17
2022-10-12T04:46:00.046Z,5.10
2022-10-12T04:48:27.188Z,5.47
2022-10-12T04:50:53.953Z,4.53
2022-10-12T04:53:20.653Z,5.30
2022-10-12T04:55:47.304Z,5.67
2022-10-12T04:58:39.412Z,5.07
2022-10-12T05:01:06.364Z,4.90
2022-10-12T05:03:33.987Z,4.77
2022-10-12T05:06:03.445Z,5.03
2022-10-12T05:08:30.470Z,5.20
2022-10-12T05:11:01.841Z,6.63
2022-10-12T05:13:33.778Z,5.70
2022-10-12T05:16:01.854Z,5.40
2022-10-12T05:18:32.815Z,5.13
2022-10-12T05:21:00.225Z,5.47
2022-10-12T05:23:28.685Z,6.07
2022-10-12T05:25:56.760Z,6.23
2022-10-12T05:28:23.910Z,5.57
2022-10-12T05:30:52.299Z,5.57
2022-10-12T05:33:22.310Z,5.43
2022-10-12T05:35:54.651Z,5.20
2022-10-12T05:38:23.435Z,5.43
2022-10-12T05:40:56.512Z,5.90
2022-10-12T05:43:27.336Z,5.50
2022-10-12T05:45:54.804Z,5.10
2022-10-12T05:48:25.506Z,4.53
2022-10-12T05:50:54.417Z,5.60
2022-10-12T05:53:27.610Z,4.67
2022-10-12T05:56:02.532Z,5.90
2022-10-12T05:58:33.934Z,5.43
2022-10-12T06:01:15.552Z,5.40
2022-10-12T06:03:44.708Z,5.20
2022-10-12T06:06:11.567Z,5.63
2022-10-12T06:08:38.344Z,5.00
2022-10-12T06:11:05.423Z,4.70
2022-10-12T06:13:33.026Z,5.20
2022-10-12T06:16:01.253Z,9.13
2022-10-12T06:18:28.152Z,4.57
2022-10-12T06:21:14.881Z,6.03
2022-10-12T06:23:42.469Z,4.77
2022-10-12T06:26:09.375Z,4.97
2022-10-12T06:28:36.419Z,5.17
2022-10-12T06:31:03.425Z,4.77
2022-10-12T06:33:30.382Z,5.30
2022-10-12T06:35:57.499Z,5.50
2022-10-12T06:38:24.963Z,5.53
2022-10-12T06:40:53.445Z,4.73
2022-10-12T06:43:22.601Z,5.27
2022-10-12T06:45:49.874Z,5.17
2022-10-12T06:48:18.715Z,5.47
2022-10-12T06:50:47.379Z,5.23
2022-10-12T06:53:14.438Z,4.40
2022-10-12T06:55:41.683Z,4.40
2022-10-12T06:58:08.793Z,4.30
2022-10-12T07:00:36.087Z,4.90
2022-10-12T07:03:03.173Z,4.77
2022-10-12T07:05:31.498Z,5.87
2022-10-12T07:08:00.045Z,5.67
2022-10-12T07:10:28.311Z,5.20
2022-10-12T07:12:55.296Z,5.77
2022-10-12T07:15:23.139Z,7.60
2022-10-12T07:17:51.292Z,5.00
2022-10-12T07:20:18.410Z,5.20
2022-10-12T07:22:45.563Z,5.30
2022-10-12T07:25:12.946Z,4.53
2022-10-12T07:27:40.178Z,4.50
2022-10-12T07:30:10.756Z,9.83
2022-10-12T07:32:37.802Z,4.80
2022-10-12T07:35:05.131Z,4.47
2022-10-12T07:37:32.162Z,4.40
2022-10-12T07:39:59.056Z,3.90
2022-10-12T07:42:25.937Z,4.63
2022-10-12T07:44:53.217Z,5.00
2022-10-12T07:47:20.363Z,4.37
2022-10-12T07:49:48.121Z,4.43
2022-10-12T07:52:15.171Z,4.50
2022-10-12T07:54:42.414Z,4.63
2022-10-12T07:57:09.655Z,4.57
2022-10-12T07:59:36.713Z,4.80
2022-10-12T08:02:03.847Z,4.73
2022-10-12T08:04:33.494Z,4.40
2022-10-12T08:07:00.451Z,4.27
2022-10-12T08:09:27.887Z,4.43
2022-10-12T08:11:59.524Z,4.33
2022-10-12T08:14:26.918Z,4.87
2022-10-12T08:16:54.190Z,5.03
2022-10-12T08:19:21.520Z,5.07
2022-10-12T08:21:49.883Z,5.60
2022-10-12T08:24:17.137Z,5.07
2022-10-12T08:26:45.586Z,5.53
2022-10-12T08:29:12.873Z,4.70
2022-10-12T08:31:40.584Z,5.03
2022-10-12T08:34:08.271Z,4.23
2022-10-12T08:36:38.304Z,4.60
2022-10-12T08:39:07.222Z,4.57
2022-10-12T08:42:15.083Z,4.20
2022-10-12T08:45:06.495Z,4.80
2022-10-12T08:47:48.731Z,4.97
2022-10-12T08:50:34.164Z,4.80
2022-10-12T08:53:24.090Z,4.67
2022-10-12T08:55:52.780Z,4.00
2022-10-12T08:58:27.319Z,4.50
2022-10-12T09:01:06.891Z,3.67
2022-10-12T09:03:58.450Z,4.20
2022-10-12T09:06:39.411Z,4.07
2022-10-12T09:09:25.000Z,4.20
2022-10-12T09:12:19.112Z,4.03
2022-10-12T09:14:47.474Z,3.90
2022-10-12T09:17:25.990Z,4.40
2022-10-12T09:20:02.497Z,4.13
2022-10-12T09:22:30.247Z,4.17
2022-10-12T09:24:58.905Z,4.60
2022-10-12T09:27:30.641Z,4.47
2022-10-12T09:30:02.252Z,4.40
2022-10-12T09:33:04.998Z,4.27
2022-10-12T09:35:33.265Z,4.27
2022-10-12T09:38:02.495Z,4.27
2022-10-12T09:40:32.773Z,4.10
2022-10-12T09:43:02.129Z,4.10
2022-10-12T09:45:32.466Z,4.23
2022-10-12T09:48:10.962Z,4.40
2022-10-12T09:51:02.070Z,4.13
2022-10-12T09:53:32.409Z,5.00
2022-10-12T09:56:14.552Z,4.43
2022-10-12T09:58:53.058Z,4.77
2022-10-12T10:01:35.391Z,3.97
2022-10-12T10:04:22.657Z,4.20
2022-10-12T10:06:50.668Z,4.20
2022-10-12T10:09:33.864Z,4.47
2022-10-12T10:12:19.748Z,4.27
2022-10-12T10:14:49.370Z,4.87
2022-10-12T10:17:23.173Z,4.50
2022-10-12T10:19:55.551Z,4.23
2022-10-12T10:22:23.237Z,3.77
2022-10-12T10:25:00.167Z,4.20
2022-10-12T10:27:37.658Z,3.60
2022-10-12T10:30:29.677Z,3.53
2022-10-12T10:33:17.530Z,3.80
2022-10-12T10:36:07.025Z,3.43
2022-10-12T10:38:54.902Z,4.00
2022-10-12T10:41:27.505Z,3.80
2022-10-12T10:43:55.162Z,3.50
2022-10-12T10:46:32.818Z,3.57
2022-10-12T10:49:07.134Z,4.00
2022-10-12T10:51:48.048Z,3.67
2022-10-12T10:54:23.620Z,4.00
2022-10-12T10:57:04.880Z,3.40
2022-10-12T11:00:33.402Z,3.90
2022-10-12T11:02:58.353Z,3.47
2022-10-12T11:05:32.108Z,3.97
2022-10-12T11:08:09.084Z,3.40
2022-10-12T11:11:01.820Z,4.10
2022-10-12T11:13:56.553Z,2.90
2022-10-12T11:16:41.693Z,3.63
2022-10-12T11:19:36.610Z,3.23
2022-10-12T11:22:15.220Z,3.10
2022-10-12T11:25:23.894Z,2.97
2022-10-12T11:27:53.802Z,3.27
2022-10-12T11:30:24.004Z,3.37
2022-10-12T11:32:50.610Z,3.47
2022-10-12T11:35:26.907Z,3.17
2022-10-12T11:44:00.711Z,3.40
2022-10-12T11:46:35.682Z,3.10
2022-10-12T11:49:17.392Z,3.27
2022-10-12T11:51:48.244Z,3.70
2022-10-12T11:54:44.393Z,3.17
2022-10-12T11:57:17.941Z,3.50
2022-10-12T11:59:49.848Z,3.23
2022-10-12T12:02:25.477Z,3.13
2022-10-12T12:04:52.753Z,3.80
2022-10-12T12:07:48.449Z,3.13
2022-10-12T12:10:37.007Z,3.47
2022-10-12T12:13:18.296Z,3.47
2022-10-12T12:15:47.771Z,3.77
2022-10-12T12:18:20.006Z,3.80
2022-10-12T12:20:46.723Z,3.40
2022-10-12T12:23:36.652Z,3.83
2022-10-12T12:26:16.598Z,3.97
2022-10-12T12:29:07.622Z,3.60
2022-10-12T12:31:34.542Z,3.07
2022-10-12T12:34:05.308Z,3.47
2022-10-12T12:36:38.460Z,3.77
2022-10-12T12:39:08.425Z,3.70
2022-10-12T12:42:01.394Z,3.13
2022-10-12T12:44:34.323Z,3.30
2022-10-12T12:47:00.979Z,3.60
2022-10-12T12:49:50.451Z,3.63
2022-10-12T12:52:22.305Z,3.43
2022-10-12T12:55:07.895Z,3.60
2022-10-12T12:57:44.017Z,3.80
2022-10-12T13:00:22.920Z,3.33
2022-10-12T13:03:08.384Z,2.97
2022-10-12T13:05:43.853Z,3.60
2022-10-12T13:08:35.760Z,4.13
2022-10-12T13:11:27.581Z,5.87
2022-10-12T13:14:21.370Z,4.90
2022-10-12T13:17:31.714Z,3.47
2022-10-12T13:19:58.011Z,3.67
2022-10-12T13:22:32.008Z,3.53
2022-10-12T13:25:06.748Z,3.70
2022-10-12T13:27:48.683Z,3.47
2022-10-12T13:30:22.694Z,4.13
2022-10-12T13:33:14.141Z,3.13
2022-10-12T13:35:56.581Z,3.43
2022-10-12T13:38:26.561Z,3.80
2022-10-12T13:41:02.310Z,3.60
2022-10-12T13:43:31.893Z,3.70
2022-10-12T13:45:58.923Z,3.60
2022-10-12T13:48:53.778Z,3.23
2022-10-12T13:51:24.152Z,3.47
2022-10-12T13:53:50.820Z,3.37
2022-10-12T13:56:26.748Z,3.13
2022-10-12T13:58:57.960Z,3.33
2022-10-12T14:01:25.388Z,4.30
2022-10-12T14:03:52.113Z,3.43
2022-10-12T14:06:34.700Z,2.93
2022-10-12T14:09:15.721Z,3.73
2022-10-12T14:11:43.311Z,2.87
2022-10-12T14:14:24.207Z,2.97
2022-10-12T14:16:51.536Z,3.37
2022-10-12T14:19:32.019Z,3.10
2022-10-12T14:22:00.618Z,3.17
2022-10-12T14:24:27.492Z,3.23
2022-10-12T14:26:58.671Z,3.17
2022-10-12T14:29:41.716Z,3.10
2022-10-12T14:32:11.020Z,2.90
2022-10-12T14:34:42.553Z,3.23
2022-10-12T14:37:09.164Z,2.90
2022-10-12T14:39:36.562Z,3.17
2022-10-12T14:42:17.969Z,3.40
2022-10-12T14:44:44.657Z,3.13
2022-10-12T14:47:25.013Z,3.23
2022-10-12T14:49:53.944Z,3.47
2022-10-12T14:52:23.265Z,3.03
2022-10-12T14:54:52.162Z,2.70
2022-10-12T14:57:19.813Z,3.10
2022-10-12T14:59:47.338Z,2.77
2022-10-12T15:02:26.404Z,3.17
2022-10-12T15:04:53.889Z,3.20
2022-10-12T15:07:21.988Z,3.00
2022-10-12T15:09:49.244Z,2.90
2022-10-12T15:12:19.244Z,3.60
2022-10-12T15:14:46.225Z,3.03
2022-10-12T15:17:14.695Z,3.30
2022-10-12T15:19:42.480Z,3.23
2022-10-12T15:22:18.506Z,3.50
2022-10-12T15:24:45.247Z,3.20
2022-10-12T15:27:12.313Z,3.10
2022-10-12T15:29:39.777Z,3.00
2022-10-12T15:32:07.680Z,3.53
2022-10-12T15:34:34.326Z,3.20
2022-10-12T15:37:04.154Z,3.60
2022-10-12T15:39:33.207Z,3.43
2022-10-12T15:41:59.869Z,3.63
2022-10-12T15:44:27.509Z,3.17
2022-10-12T15:46:54.342Z,3.83
2022-10-12T15:49:24.270Z,3.47
2022-10-12T15:51:52.933Z,3.97
2022-10-12T15:54:19.884Z,3.43
2022-10-12T15:56:46.491Z,3.67
2022-10-12T15:59:13.128Z,3.40
2022-10-12T16:01:39.937Z,3.43
2022-10-12T16:04:06.884Z,3.67
2022-10-12T16:06:34.104Z,3.60
2022-10-12T16:09:00.765Z,3.97
2022-10-12T16:11:27.405Z,4.37
2022-10-12T16:13:56.885Z,4.27
2022-10-12T16:16:24.202Z,4.10
2022-10-12T16:18:53.709Z,4.27
2022-10-12T16:21:20.312Z,4.53
2022-10-12T16:23:47.015Z,4.00
2022-10-12T16:26:15.312Z,4.20
2022-10-12T16:28:42.461Z,4.57
2022-10-12T16:31:15.753Z,4.53
2022-10-12T16:33:42.706Z,4.70
2022-10-12T16:36:15.353Z,4.77
2022-10-12T16:38:43.068Z,4.17
2022-10-12T16:41:12.386Z,4.37
2022-10-12T16:43:39.523Z,4.23
2022-10-12T16:46:06.755Z,4.60
2022-10-12T16:48:33.706Z,4.60
2022-10-12T16:51:00.380Z,4.07
2022-10-12T16:53:27.321Z,4.23
2022-10-12T16:55:54.009Z,5.37
2022-10-12T16:58:20.804Z,6.07
2022-10-12T17:00:47.554Z,4.37
2022-10-12T17:03:14.418Z,4.13
2022-10-12T17:05:42.113Z,4.60
2022-10-12T17:08:14.157Z,4.43
2022-10-12T17:10:45.623Z,4.17
2022-10-12T17:13:13.482Z,5.13
2022-10-12T17:15:41.453Z,5.30
2022-10-12T17:18:08.344Z,4.90
2022-10-12T17:20:36.106Z,5.10
2022-10-12T17:23:03.131Z,5.27
2022-10-12T17:25:29.819Z,5.70
2022-10-12T17:27:56.667Z,5.53
2022-10-12T17:30:23.384Z,5.13
2022-10-12T17:32:50.068Z,4.27
2022-10-12T17:35:16.846Z,5.53
2022-10-12T17:37:43.575Z,5.00
2022-10-12T17:40:10.785Z,5.00
2022-10-12T17:42:37.869Z,5.27
2022-10-12T17:45:04.943Z,4.90
2022-10-12T17:47:31.600Z,5.33
2022-10-12T17:49:58.188Z,4.57
2022-10-12T17:52:24.887Z,4.20
2022-10-12T17:54:51.472Z,4.47
2022-10-12T17:57:18.461Z,4.80
2022-10-12T17:59:45.434Z,5.20
2022-10-12T18:02:12.168Z,4.50
2022-10-12T18:04:38.791Z,4.43
2022-10-12T18:07:05.432Z,4.77
2022-10-12T18:09:32.071Z,4.43
2022-10-12T18:11:58.705Z,4.50
2022-10-12T18:14:25.293Z,4.63
2022-10-12T18:16:52.232Z,4.47
2022-10-12T18:19:18.874Z,4.50
2022-10-12T18:21:45.515Z,4.47
2022-10-12T18:24:16.260Z,4.90
2022-10-12T18:26:45.396Z,5.03
2022-10-12T18:29:15.221Z,4.63
2022-10-12T18:31:41.949Z,4.33
2022-10-12T18:34:09.201Z,5.03
2022-10-12T18:36:36.120Z,4.20
2022-10-12T18:39:03.992Z,3.80
2022-10-12T18:41:31.287Z,3.97
2022-10-12T18:43:59.870Z,4.90
2022-10-12T18:46:28.639Z,4.60
2022-10-12T18:48:56.012Z,4.77
2022-10-12T18:51:26.913Z,4.33
2022-10-12T18:53:54.450Z,4.33
2022-10-12T18:56:21.338Z,5.00
2022-10-12T18:58:48.249Z,4.53
2022-10-12T19:01:24.333Z,4.17
2022-10-12T19:03:51.772Z,3.97
2022-10-12T19:06:22.671Z,4.83
2022-10-12T19:08:50.124Z,4.00
2022-10-12T19:11:18.861Z,4.80
2022-10-12T19:13:52.370Z,4.67
2022-10-12T19:16:19.282Z,4.73
2022-10-12T19:18:45.890Z,5.30
2022-10-12T19:21:15.640Z,5.00
2022-10-12T19:23:42.961Z,5.00
2022-10-12T19:26:13.449Z,5.17
2022-10-12T19:28:40.548Z,5.53
2022-10-12T19:31:12.583Z,6.20
2022-10-12T19:33:39.411Z,5.30
2022-10-12T19:36:07.762Z,5.43
2022-10-12T19:38:34.497Z,4.63
2022-10-12T19:41:01.448Z,4.57
2022-10-12T19:43:28.104Z,4.60
2022-10-12T19:45:55.295Z,5.03
2022-10-12T19:48:21.920Z,4.37
2022-10-12T19:51:00.444Z,5.43
2022-10-12T19:53:28.103Z,5.17
2022-10-12T19:56:13.964Z,5.27
2022-10-12T19:58:41.350Z,4.63
2022-10-12T20:01:14.154Z,4.83
2022-10-12T20:03:45.361Z,4.70
2022-10-12T20:06:14.205Z,4.27
2022-10-12T20:08:42.686Z,5.13
2022-10-12T20:11:13.178Z,5.20
2022-10-12T20:13:43.688Z,5.03
2022-10-12T20:16:10.530Z,4.90
2022-10-12T20:18:37.338Z,4.93
2022-10-12T20:21:08.264Z,5.07
2022-10-12T20:23:36.349Z,4.57
2022-10-12T20:26:07.325Z,5.47
2022-10-12T20:28:34.639Z,4.27
2022-10-12T20:31:02.169Z,4.57
2022-10-12T20:33:29.080Z,4.83
2022-10-12T20:35:55.717Z,4.97
2022-10-12T20:38:22.307Z,5.00
2022-10-12T20:40:49.243Z,4.97
2022-10-12T20:43:16.128Z,4.33
2022-10-12T20:45:42.774Z,5.50
2022-10-12T20:48:09.372Z,4.80
2022-10-12T20:50:37.349Z,5.40
2022-10-12T20:53:04.056Z,5.23
2022-10-12T20:55:30.668Z,5.00
2022-10-12T20:57:57.333Z,4.50
2022-10-12T21:00:24.073Z,5.10
2022-10-12T21:02:50.944Z,4.57
2022-10-12T21:05:17.589Z,4.53
2022-10-12T21:07:44.213Z,5.50
2022-10-12T21:10:10.990Z,4.80
2022-10-12T21:12:37.635Z,4.57
2022-10-12T21:15:04.618Z,4.70
2022-10-12T21:17:31.188Z,4.40
2022-10-12T21:19:57.772Z,14.23
2022-10-12T21:22:24.429Z,5.13
2022-10-12T21:24:51.324Z,7.07
2022-10-12T21:27:17.973Z,4.90
2022-10-12T21:29:44.568Z,5.20
2022-10-12T21:32:11.140Z,4.60
2022-10-12T21:34:37.721Z,4.63
2022-10-12T21:37:04.426Z,4.53
2022-10-12T21:39:31.000Z,5.23
2022-10-12T21:41:57.661Z,5.13
2022-10-12T21:44:24.273Z,4.33
2022-10-12T21:46:50.951Z,5.10
2022-10-12T21:49:17.521Z,4.33
2022-10-12T21:51:44.140Z,4.63
2022-10-12T21:54:10.827Z,3.90
2022-10-12T21:56:38.175Z,4.30
2022-10-12T21:59:05.795Z,4.30
2022-10-12T22:01:35.417Z,4.60
2022-10-12T22:04:04.803Z,4.00
2022-10-12T22:06:32.337Z,4.80
2022-10-12T22:09:02.943Z,7.10
2022-10-12T22:11:32.031Z,3.80
2022-10-12T22:14:01.926Z,5.57
2022-10-12T22:16:32.040Z,4.33
2022-10-12T22:19:00.117Z,4.70
2022-10-12T22:21:32.794Z,4.40
2022-10-12T22:24:00.424Z,4.50
2022-10-12T22:26:27.564Z,5.03
2022-10-12T22:28:55.368Z,6.00
2022-10-12T22:31:23.612Z,5.10
2022-10-12T22:33:51.160Z,4.33
2022-10-12T22:36:17.939Z,4.73
2022-10-12T22:38:44.886Z,5.90
2022-10-12T22:41:14.325Z,4.60
2022-10-12T22:43:48.499Z,3.90
2022-10-12T22:46:15.663Z,4.23
2022-10-12T22:48:42.495Z,4.17
2022-10-12T22:51:11.713Z,4.53
2022-10-12T22:53:38.397Z,4.17
2022-10-12T22:56:08.314Z,4.40
2022-10-12T22:58:35.772Z,4.20
2022-10-12T23:01:05.074Z,4.03
2022-10-12T23:03:32.596Z,4.30
2022-10-12T23:06:03.371Z,4.33
2022-10-12T23:08:30.342Z,4.20
2022-10-12T23:11:06.680Z,3.83
2022-10-12T23:13:35.995Z,4.10
2022-10-12T23:16:07.978Z,3.77
2022-10-12T23:18:34.872Z,4.13
2022-10-12T23:21:14.017Z,3.97
2022-10-12T23:23:41.681Z,4.17
2022-10-12T23:26:11.364Z,4.07
2022-10-12T23:28:38.135Z,4.40
2022-10-12T23:31:09.615Z,4.07
2022-10-12T23:33:36.260Z,4.47
2022-10-12T23:36:06.675Z,3.97
2022-10-12T23:38:35.084Z,4.03
2022-10-12T23:41:02.018Z,4.60
2022-10-12T23:43:28.933Z,4.17
2022-10-12T23:45:59.784Z,4.13
2022-10-12T23:48:26.940Z,4.37
2022-10-12T23:50:53.913Z,4.17
2022-10-12T23:53:21.532Z,3.93
2022-10-12T23:55:48.856Z,4.10
2022-10-12T23:58:15.728Z,4.20
